sensor_id;sensor_type;location;lat;lon;timestamp;P1;durP1;ratioP1;P2;durP2;ratioP2
18693;SDS011;9477;51.414;10.362;2023-02-10T00:00:09;31.63;;;18.03;;
18693;SDS011;9477;51.414;10.362;2023-02-10T00:02:12;27.33;;;16.73;;
18693;SDS011;9477;51.414;10.362;2023-02-10T00:04:15;29.03;;;17.70;;
18693;SDS011;9477;51.414;10.362;2023-02-10T00:06:18;29.40;;;17.30;;
18693;SDS011;9477;51.414;10.362;2023-02-10T00:08:24;30.87;;;18.07;;
18693;SDS011;9477;51.414;10.362;2023-02-10T00:10:27;31.60;;;18.10;;
18693;SDS011;9477;51.414;10.362;2023-02-10T00:12:30;32.67;;;19.33;;
18693;SDS011;9477;51.414;10.362;2023-02-10T00:14:33;31.07;;;18.67;;
18693;SDS011;9477;51.414;10.362;2023-02-10T00:16:35;29.93;;;18.60;;
18693;SDS011;9477;51.414;10.362;2023-02-10T00:18:39;32.57;;;19.17;;
18693;SDS011;9477;51.414;10.362;2023-02-10T00:20:42;31.00;;;19.17;;
18693;SDS011;9477;51.414;10.362;2023-02-10T00:22:45;37.73;;;19.47;;
18693;SDS011;9477;51.414;10.362;2023-02-10T00:24:49;32.60;;;19.57;;
18693;SDS011;9477;51.414;10.362;2023-02-10T00:26:52;33.67;;;18.80;;
18693;SDS011;9477;51.414;10.362;2023-02-10T00:28:55;33.80;;;19.90;;
18693;SDS011;9477;51.414;10.362;2023-02-10T00:30:57;34.03;;;19.53;;
18693;SDS011;9477;51.414;10.362;2023-02-10T00:33:00;38.03;;;20.47;;
18693;SDS011;9477;51.414;10.362;2023-02-10T00:35:03;33.87;;;19.37;;
18693;SDS011;9477;51.414;10.362;2023-02-10T00:37:06;37.83;;;19.93;;
18693;SDS011;9477;51.414;10.362;2023-02-10T00:39:11;36.27;;;20.63;;
18693;SDS011;9477;51.414;10.362;2023-02-10T00:41:17;34.30;;;19.60;;
18693;SDS011;9477;51.414;10.362;2023-02-10T00:43:22;32.37;;;19.47;;
18693;SDS011;9477;51.414;10.362;2023-02-10T00:45:24;35.57;;;20.63;;
18693;SDS011;9477;51.414;10.362;2023-02-10T00:47:27;36.33;;;20.83;;
18693;SDS011;9477;51.414;10.362;2023-02-10T00:49:30;33.87;;;19.83;;
18693;SDS011;9477;51.414;10.362;2023-02-10T00:51:33;36.63;;;20.50;;
18693;SDS011;9477;51.414;10.362;2023-02-10T00:53:36;37.03;;;20.97;;
18693;SDS011;9477;51.414;10.362;2023-02-10T00:55:38;39.07;;;20.70;;
18693;SDS011;9477;51.414;10.362;2023-02-10T00:57:42;35.17;;;19.53;;
18693;SDS011;9477;51.414;10.362;2023-02-10T00:59:45;35.57;;;21.10;;
18693;SDS011;9477;51.414;10.362;2023-02-10T01:01:48;33.90;;;19.50;;
18693;SDS011;9477;51.414;10.362;2023-02-10T01:03:51;34.90;;;20.07;;
18693;SDS011;9477;51.414;10.362;2023-02-10T01:05:54;35.33;;;20.13;;
18693;SDS011;9477;51.414;10.362;2023-02-10T01:07:57;34.87;;;21.17;;
18693;SDS011;9477;51.414;10.362;2023-02-10T01:09:59;37.20;;;21.97;;
18693;SDS011;9477;51.414;10.362;2023-02-10T01:12:02;34.53;;;20.47;;
18693;SDS011;9477;51.414;10.362;2023-02-10T01:14:06;37.77;;;21.13;;
18693;SDS011;9477;51.414;10.362;2023-02-10T01:16:13;35.47;;;20.80;;
18693;SDS011;9477;51.414;10.362;2023-02-10T01:18:17;34.70;;;19.93;;
18693;SDS011;9477;51.414;10.362;2023-02-10T01:20:20;33.13;;;19.30;;
18693;SDS011;9477;51.414;10.362;2023-02-10T01:22:23;33.40;;;20.20;;
18693;SDS011;9477;51.414;10.362;2023-02-10T01:24:26;36.23;;;20.03;;
18693;SDS011;9477;51.414;10.362;2023-02-10T01:26:29;33.03;;;19.53;;
18693;SDS011;9477;51.414;10.362;2023-02-10T01:28:31;42.67;;;20.93;;
18693;SDS011;9477;51.414;10.362;2023-02-10T01:30:36;33.97;;;20.13;;
18693;SDS011;9477;51.414;10.362;2023-02-10T01:32:39;35.33;;;20.23;;
18693;SDS011;9477;51.414;10.362;2023-02-10T01:34:41;35.20;;;20.53;;
18693;SDS011;9477;51.414;10.362;2023-02-10T01:36:44;36.53;;;20.90;;
18693;SDS011;9477;51.414;10.362;2023-02-10T01:38:47;35.87;;;20.33;;
18693;SDS011;9477;51.414;10.362;2023-02-10T01:40:50;33.93;;;20.17;;
18693;SDS011;9477;51.414;10.362;2023-02-10T01:42:53;38.10;;;21.50;;
18693;SDS011;9477;51.414;10.362;2023-02-10T01:47:27;33.20;;;20.40;;
18693;SDS011;9477;51.414;10.362;2023-02-10T01:49:32;41.00;;;22.13;;
18693;SDS011;9477;51.414;10.362;2023-02-10T01:51:42;36.53;;;22.13;;
18693;SDS011;9477;51.414;10.362;2023-02-10T01:53:48;34.07;;;20.80;;
18693;SDS011;9477;51.414;10.362;2023-02-10T01:55:51;37.80;;;21.93;;
18693;SDS011;9477;51.414;10.362;2023-02-10T01:57:58;41.07;;;22.93;;
18693;SDS011;9477;51.414;10.362;2023-02-10T02:00:03;36.00;;;21.50;;
18693;SDS011;9477;51.414;10.362;2023-02-10T02:02:07;40.40;;;23.17;;
18693;SDS011;9477;51.414;10.362;2023-02-10T02:04:13;38.53;;;21.13;;
18693;SDS011;9477;51.414;10.362;2023-02-10T02:06:15;40.07;;;22.57;;
18693;SDS011;9477;51.414;10.362;2023-02-10T02:08:19;39.83;;;22.33;;
18693;SDS011;9477;51.414;10.362;2023-02-10T02:10:25;40.07;;;22.40;;
18693;SDS011;9477;51.414;10.362;2023-02-10T02:12:38;43.20;;;23.70;;
18693;SDS011;9477;51.414;10.362;2023-02-10T02:14:46;39.53;;;22.13;;
18693;SDS011;9477;51.414;10.362;2023-02-10T02:16:57;40.37;;;23.17;;
18693;SDS011;9477;51.414;10.362;2023-02-10T02:19:12;38.57;;;22.50;;
18693;SDS011;9477;51.414;10.362;2023-02-10T02:21:39;41.83;;;22.30;;
18693;SDS011;9477;51.414;10.362;2023-02-10T02:24:01;40.87;;;22.53;;
18693;SDS011;9477;51.414;10.362;2023-02-10T02:29:06;36.53;;;21.67;;
18693;SDS011;9477;51.414;10.362;2023-02-10T02:31:31;38.10;;;20.93;;
18693;SDS011;9477;51.414;10.362;2023-02-10T02:33:45;40.53;;;22.83;;
18693;SDS011;9477;51.414;10.362;2023-02-10T02:35:52;42.87;;;23.07;;
18693;SDS011;9477;51.414;10.362;2023-02-10T02:38:02;41.07;;;23.63;;
18693;SDS011;9477;51.414;10.362;2023-02-10T02:40:10;42.87;;;22.87;;
18693;SDS011;9477;51.414;10.362;2023-02-10T02:42:18;48.17;;;23.50;;
18693;SDS011;9477;51.414;10.362;2023-02-10T02:44:22;44.73;;;24.50;;
18693;SDS011;9477;51.414;10.362;2023-02-10T02:46:28;42.87;;;23.57;;
18693;SDS011;9477;51.414;10.362;2023-02-10T02:48:47;46.10;;;23.60;;
18693;SDS011;9477;51.414;10.362;2023-02-10T02:51:00;48.43;;;25.30;;
18693;SDS011;9477;51.414;10.362;2023-02-10T02:53:13;43.90;;;23.73;;
18693;SDS011;9477;51.414;10.362;2023-02-10T02:55:22;49.77;;;26.17;;
18693;SDS011;9477;51.414;10.362;2023-02-10T02:57:36;49.87;;;25.47;;
18693;SDS011;9477;51.414;10.362;2023-02-10T02:59:49;54.00;;;27.03;;
18693;SDS011;9477;51.414;10.362;2023-02-10T03:01:57;42.97;;;24.00;;
18693;SDS011;9477;51.414;10.362;2023-02-10T03:04:03;44.33;;;26.10;;
18693;SDS011;9477;51.414;10.362;2023-02-10T03:06:07;43.40;;;25.17;;
18693;SDS011;9477;51.414;10.362;2023-02-10T03:08:10;55.43;;;27.50;;
18693;SDS011;9477;51.414;10.362;2023-02-10T03:10:12;53.80;;;26.70;;
18693;SDS011;9477;51.414;10.362;2023-02-10T03:12:15;49.13;;;25.73;;
18693;SDS011;9477;51.414;10.362;2023-02-10T03:14:18;50.67;;;27.57;;
18693;SDS011;9477;51.414;10.362;2023-02-10T03:16:21;50.90;;;27.13;;
18693;SDS011;9477;51.414;10.362;2023-02-10T03:18:25;48.87;;;26.53;;
18693;SDS011;9477;51.414;10.362;2023-02-10T03:20:28;52.33;;;28.13;;
18693;SDS011;9477;51.414;10.362;2023-02-10T03:22:31;53.80;;;27.50;;
18693;SDS011;9477;51.414;10.362;2023-02-10T03:24:34;52.03;;;27.27;;
18693;SDS011;9477;51.414;10.362;2023-02-10T03:26:36;55.77;;;29.07;;
18693;SDS011;9477;51.414;10.362;2023-02-10T03:28:39;57.13;;;29.10;;
18693;SDS011;9477;51.414;10.362;2023-02-10T03:30:42;56.57;;;28.73;;
18693;SDS011;9477;51.414;10.362;2023-02-10T03:32:48;52.93;;;27.37;;
18693;SDS011;9477;51.414;10.362;2023-02-10T03:34:54;57.97;;;28.13;;
18693;SDS011;9477;51.414;10.362;2023-02-10T03:36:56;52.73;;;28.27;;
18693;SDS011;9477;51.414;10.362;2023-02-10T03:38:59;54.50;;;28.10;;
18693;SDS011;9477;51.414;10.362;2023-02-10T03:41:02;52.73;;;28.27;;
18693;SDS011;9477;51.414;10.362;2023-02-10T03:43:05;51.80;;;26.97;;
18693;SDS011;9477;51.414;10.362;2023-02-10T03:45:08;49.20;;;27.83;;
18693;SDS011;9477;51.414;10.362;2023-02-10T03:47:11;57.37;;;28.57;;
18693;SDS011;9477;51.414;10.362;2023-02-10T03:49:14;60.07;;;30.27;;
18693;SDS011;9477;51.414;10.362;2023-02-10T03:51:18;51.27;;;28.80;;
18693;SDS011;9477;51.414;10.362;2023-02-10T03:53:21;54.87;;;29.40;;
18693;SDS011;9477;51.414;10.362;2023-02-10T03:55:24;60.23;;;30.87;;
18693;SDS011;9477;51.414;10.362;2023-02-10T03:57:27;66.57;;;32.13;;
18693;SDS011;9477;51.414;10.362;2023-02-10T03:59:30;61.10;;;30.50;;
18693;SDS011;9477;51.414;10.362;2023-02-10T04:01:33;60.93;;;29.37;;
18693;SDS011;9477;51.414;10.362;2023-02-10T04:03:36;61.97;;;29.60;;
18693;SDS011;9477;51.414;10.362;2023-02-10T04:05:39;63.47;;;32.50;;
18693;SDS011;9477;51.414;10.362;2023-02-10T04:07:43;64.80;;;31.67;;
18693;SDS011;9477;51.414;10.362;2023-02-10T04:09:45;60.97;;;29.93;;
18693;SDS011;9477;51.414;10.362;2023-02-10T04:11:48;61.63;;;31.20;;
18693;SDS011;9477;51.414;10.362;2023-02-10T04:13:51;61.03;;;30.57;;
18693;SDS011;9477;51.414;10.362;2023-02-10T04:15:59;64.37;;;31.37;;
18693;SDS011;9477;51.414;10.362;2023-02-10T04:18:03;59.23;;;30.83;;
18693;SDS011;9477;51.414;10.362;2023-02-10T04:20:07;70.73;;;32.43;;
18693;SDS011;9477;51.414;10.362;2023-02-10T04:22:10;71.30;;;33.80;;
18693;SDS011;9477;51.414;10.362;2023-02-10T04:24:14;65.60;;;30.97;;
18693;SDS011;9477;51.414;10.362;2023-02-10T04:26:17;67.20;;;32.20;;
18693;SDS011;9477;51.414;10.362;2023-02-10T04:28:19;64.97;;;31.20;;
18693;SDS011;9477;51.414;10.362;2023-02-10T04:30:22;70.17;;;32.23;;
18693;SDS011;9477;51.414;10.362;2023-02-10T04:32:25;64.50;;;31.83;;
18693;SDS011;9477;51.414;10.362;2023-02-10T04:34:28;66.77;;;30.93;;
18693;SDS011;9477;51.414;10.362;2023-02-10T04:36:31;63.73;;;31.20;;
18693;SDS011;9477;51.414;10.362;2023-02-10T04:38:34;59.17;;;30.33;;
18693;SDS011;9477;51.414;10.362;2023-02-10T04:40:38;65.03;;;30.97;;
18693;SDS011;9477;51.414;10.362;2023-02-10T04:42:43;54.70;;;29.17;;
18693;SDS011;9477;51.414;10.362;2023-02-10T04:44:46;59.63;;;29.20;;
18693;SDS011;9477;51.414;10.362;2023-02-10T04:46:48;58.70;;;30.93;;
18693;SDS011;9477;51.414;10.362;2023-02-10T04:48:52;61.67;;;31.37;;
18693;SDS011;9477;51.414;10.362;2023-02-10T04:50:55;62.77;;;31.20;;
18693;SDS011;9477;51.414;10.362;2023-02-10T04:52:57;69.60;;;32.13;;
18693;SDS011;9477;51.414;10.362;2023-02-10T04:55:01;61.60;;;31.53;;
18693;SDS011;9477;51.414;10.362;2023-02-10T04:57:05;67.57;;;32.07;;
18693;SDS011;9477;51.414;10.362;2023-02-10T04:59:07;57.80;;;31.27;;
18693;SDS011;9477;51.414;10.362;2023-02-10T05:01:10;70.57;;;35.63;;
18693;SDS011;9477;51.414;10.362;2023-02-10T05:03:13;60.77;;;31.90;;
18693;SDS011;9477;51.414;10.362;2023-02-10T05:05:16;67.53;;;32.93;;
18693;SDS011;9477;51.414;10.362;2023-02-10T05:07:19;59.50;;;30.03;;
18693;SDS011;9477;51.414;10.362;2023-02-10T05:09:22;67.87;;;34.40;;
18693;SDS011;9477;51.414;10.362;2023-02-10T05:11:24;62.17;;;30.57;;
18693;SDS011;9477;51.414;10.362;2023-02-10T05:13:29;71.80;;;31.60;;
18693;SDS011;9477;51.414;10.362;2023-02-10T05:15:32;63.33;;;31.37;;
18693;SDS011;9477;51.414;10.362;2023-02-10T05:17:35;76.50;;;35.17;;
18693;SDS011;9477;51.414;10.362;2023-02-10T05:19:38;69.83;;;33.30;;
18693;SDS011;9477;51.414;10.362;2023-02-10T05:21:40;80.13;;;37.30;;
18693;SDS011;9477;51.414;10.362;2023-02-10T05:23:43;87.47;;;39.67;;
18693;SDS011;9477;51.414;10.362;2023-02-10T05:25:46;92.13;;;42.27;;
18693;SDS011;9477;51.414;10.362;2023-02-10T05:27:49;88.60;;;41.17;;
18693;SDS011;9477;51.414;10.362;2023-02-10T05:29:54;157.93;;;68.67;;
18693;SDS011;9477;51.414;10.362;2023-02-10T05:31:56;119.13;;;54.13;;
18693;SDS011;9477;51.414;10.362;2023-02-10T05:33:59;112.20;;;52.87;;
18693;SDS011;9477;51.414;10.362;2023-02-10T05:36:02;84.67;;;40.57;;
18693;SDS011;9477;51.414;10.362;2023-02-10T05:38:06;79.90;;;37.97;;
18693;SDS011;9477;51.414;10.362;2023-02-10T05:40:09;74.63;;;35.40;;
18693;SDS011;9477;51.414;10.362;2023-02-10T05:42:12;76.63;;;34.47;;
18693;SDS011;9477;51.414;10.362;2023-02-10T05:44:15;72.60;;;33.10;;
18693;SDS011;9477;51.414;10.362;2023-02-10T05:46:19;69.17;;;31.10;;
18693;SDS011;9477;51.414;10.362;2023-02-10T05:48:22;76.17;;;34.20;;
18693;SDS011;9477;51.414;10.362;2023-02-10T05:50:25;86.20;;;38.27;;
18693;SDS011;9477;51.414;10.362;2023-02-10T05:52:28;78.03;;;33.73;;
18693;SDS011;9477;51.414;10.362;2023-02-10T05:54:31;66.00;;;31.27;;
18693;SDS011;9477;51.414;10.362;2023-02-10T05:56:34;62.13;;;30.97;;
18693;SDS011;9477;51.414;10.362;2023-02-10T05:58:38;67.70;;;31.90;;
18693;SDS011;9477;51.414;10.362;2023-02-10T06:00:41;66.00;;;30.23;;
18693;SDS011;9477;51.414;10.362;2023-02-10T06:02:45;74.40;;;32.53;;
18693;SDS011;9477;51.414;10.362;2023-02-10T06:04:48;72.37;;;33.10;;
18693;SDS011;9477;51.414;10.362;2023-02-10T06:06:50;62.63;;;31.07;;
18693;SDS011;9477;51.414;10.362;2023-02-10T06:08:53;72.23;;;33.33;;
18693;SDS011;9477;51.414;10.362;2023-02-10T06:10:56;70.60;;;32.57;;
18693;SDS011;9477;51.414;10.362;2023-02-10T06:12:59;63.23;;;30.90;;
18693;SDS011;9477;51.414;10.362;2023-02-10T06:15:02;67.40;;;32.53;;
18693;SDS011;9477;51.414;10.362;2023-02-10T06:17:05;72.27;;;32.73;;
18693;SDS011;9477;51.414;10.362;2023-02-10T06:19:11;70.73;;;32.87;;
18693;SDS011;9477;51.414;10.362;2023-02-10T06:21:14;65.70;;;30.60;;
18693;SDS011;9477;51.414;10.362;2023-02-10T06:23:17;61.27;;;30.40;;
18693;SDS011;9477;51.414;10.362;2023-02-10T06:25:20;60.73;;;31.03;;
18693;SDS011;9477;51.414;10.362;2023-02-10T06:27:23;59.40;;;31.23;;
18693;SDS011;9477;51.414;10.362;2023-02-10T06:29:26;64.63;;;32.03;;
18693;SDS011;9477;51.414;10.362;2023-02-10T06:31:28;65.30;;;31.70;;
18693;SDS011;9477;51.414;10.362;2023-02-10T06:33:31;60.13;;;29.87;;
18693;SDS011;9477;51.414;10.362;2023-02-10T06:52:08;60.00;;;33.90;;
18693;SDS011;9477;51.414;10.362;2023-02-10T06:54:17;61.87;;;33.00;;
18693;SDS011;9477;51.414;10.362;2023-02-10T06:56:20;57.50;;;31.83;;
18693;SDS011;9477;51.414;10.362;2023-02-10T06:58:23;57.37;;;31.23;;
18693;SDS011;9477;51.414;10.362;2023-02-10T07:00:25;59.97;;;30.90;;
18693;SDS011;9477;51.414;10.362;2023-02-10T07:02:28;58.70;;;30.70;;
18693;SDS011;9477;51.414;10.362;2023-02-10T07:04:31;57.67;;;30.27;;
18693;SDS011;9477;51.414;10.362;2023-02-10T07:06:34;54.07;;;29.97;;
18693;SDS011;9477;51.414;10.362;2023-02-10T07:08:38;59.83;;;30.00;;
18693;SDS011;9477;51.414;10.362;2023-02-10T07:10:41;56.10;;;30.07;;
18693;SDS011;9477;51.414;10.362;2023-02-10T07:12:44;61.90;;;31.20;;
18693;SDS011;9477;51.414;10.362;2023-02-10T07:14:48;61.10;;;29.73;;
18693;SDS011;9477;51.414;10.362;2023-02-10T07:16:50;60.17;;;31.10;;
18693;SDS011;9477;51.414;10.362;2023-02-10T07:18:53;55.77;;;28.67;;
18693;SDS011;9477;51.414;10.362;2023-02-10T07:20:56;59.07;;;32.93;;
18693;SDS011;9477;51.414;10.362;2023-02-10T07:22:59;62.47;;;33.43;;
18693;SDS011;9477;51.414;10.362;2023-02-10T07:25:03;63.40;;;32.47;;
18693;SDS011;9477;51.414;10.362;2023-02-10T07:27:06;55.40;;;30.27;;
18693;SDS011;9477;51.414;10.362;2023-02-10T07:29:09;56.03;;;29.50;;
18693;SDS011;9477;51.414;10.362;2023-02-10T07:31:12;59.93;;;31.30;;
18693;SDS011;9477;51.414;10.362;2023-02-10T07:33:15;57.83;;;30.77;;
18693;SDS011;9477;51.414;10.362;2023-02-10T07:35:18;61.67;;;31.17;;
18693;SDS011;9477;51.414;10.362;2023-02-10T07:37:23;58.67;;;31.07;;
18693;SDS011;9477;51.414;10.362;2023-02-10T07:39:27;57.60;;;31.13;;
18693;SDS011;9477;51.414;10.362;2023-02-10T07:41:31;65.47;;;31.53;;
18693;SDS011;9477;51.414;10.362;2023-02-10T07:43:34;66.53;;;32.87;;
18693;SDS011;9477;51.414;10.362;2023-02-10T07:45:37;63.50;;;32.87;;
18693;SDS011;9477;51.414;10.362;2023-02-10T07:47:40;62.33;;;32.57;;
18693;SDS011;9477;51.414;10.362;2023-02-10T07:49:42;63.83;;;31.87;;
18693;SDS011;9477;51.414;10.362;2023-02-10T07:51:45;60.90;;;31.53;;
18693;SDS011;9477;51.414;10.362;2023-02-10T07:53:48;63.17;;;31.73;;
18693;SDS011;9477;51.414;10.362;2023-02-10T07:55:51;62.33;;;31.33;;
18693;SDS011;9477;51.414;10.362;2023-02-10T07:57:55;53.67;;;29.17;;
18693;SDS011;9477;51.414;10.362;2023-02-10T07:59:58;55.60;;;30.13;;
18693;SDS011;9477;51.414;10.362;2023-02-10T08:02:00;56.77;;;29.67;;
18693;SDS011;9477;51.414;10.362;2023-02-10T08:04:04;58.30;;;30.10;;
18693;SDS011;9477;51.414;10.362;2023-02-10T08:06:07;60.53;;;29.50;;
18693;SDS011;9477;51.414;10.362;2023-02-10T08:08:12;65.90;;;31.17;;
18693;SDS011;9477;51.414;10.362;2023-02-10T08:10:15;57.23;;;29.50;;
18693;SDS011;9477;51.414;10.362;2023-02-10T08:12:18;60.87;;;29.13;;
18693;SDS011;9477;51.414;10.362;2023-02-10T08:14:22;57.77;;;29.43;;
18693;SDS011;9477;51.414;10.362;2023-02-10T08:16:25;50.50;;;27.97;;
18693;SDS011;9477;51.414;10.362;2023-02-10T08:18:28;56.53;;;29.70;;
18693;SDS011;9477;51.414;10.362;2023-02-10T08:20:30;56.77;;;28.87;;
18693;SDS011;9477;51.414;10.362;2023-02-10T08:22:33;53.37;;;29.93;;
18693;SDS011;9477;51.414;10.362;2023-02-10T08:24:36;56.00;;;29.13;;
18693;SDS011;9477;51.414;10.362;2023-02-10T08:26:39;50.80;;;28.70;;
18693;SDS011;9477;51.414;10.362;2023-02-10T08:28:43;55.17;;;29.33;;
18693;SDS011;9477;51.414;10.362;2023-02-10T08:30:47;56.13;;;31.63;;
18693;SDS011;9477;51.414;10.362;2023-02-10T08:32:50;51.70;;;28.80;;
18693;SDS011;9477;51.414;10.362;2023-02-10T08:34:52;53.47;;;28.63;;
18693;SDS011;9477;51.414;10.362;2023-02-10T08:36:55;53.70;;;28.40;;
18693;SDS011;9477;51.414;10.362;2023-02-10T08:38:58;49.83;;;28.47;;
18693;SDS011;9477;51.414;10.362;2023-02-10T08:41:04;50.93;;;26.33;;
18693;SDS011;9477;51.414;10.362;2023-02-10T08:43:07;50.33;;;28.50;;
18693;SDS011;9477;51.414;10.362;2023-02-10T08:45:09;50.97;;;27.87;;
18693;SDS011;9477;51.414;10.362;2023-02-10T08:47:14;49.50;;;26.83;;
18693;SDS011;9477;51.414;10.362;2023-02-10T08:49:16;51.70;;;27.67;;
18693;SDS011;9477;51.414;10.362;2023-02-10T08:51:19;48.33;;;26.37;;
18693;SDS011;9477;51.414;10.362;2023-02-10T08:53:22;50.60;;;28.73;;
18693;SDS011;9477;51.414;10.362;2023-02-10T08:55:25;46.03;;;27.37;;
18693;SDS011;9477;51.414;10.362;2023-02-10T08:57:27;47.63;;;26.67;;
18693;SDS011;9477;51.414;10.362;2023-02-10T08:59:30;49.27;;;27.20;;
18693;SDS011;9477;51.414;10.362;2023-02-10T09:01:33;48.23;;;27.23;;
18693;SDS011;9477;51.414;10.362;2023-02-10T09:03:38;46.27;;;27.23;;
18693;SDS011;9477;51.414;10.362;2023-02-10T09:05:43;47.40;;;27.63;;
18693;SDS011;9477;51.414;10.362;2023-02-10T09:07:47;51.93;;;28.10;;
18693;SDS011;9477;51.414;10.362;2023-02-10T09:09:50;49.93;;;28.60;;
18693;SDS011;9477;51.414;10.362;2023-02-10T09:11:53;55.20;;;27.03;;
18693;SDS011;9477;51.414;10.362;2023-02-10T09:13:56;49.60;;;26.00;;
18693;SDS011;9477;51.414;10.362;2023-02-10T09:15:59;47.90;;;26.90;;
18693;SDS011;9477;51.414;10.362;2023-02-10T09:18:02;52.37;;;27.70;;
18693;SDS011;9477;51.414;10.362;2023-02-10T09:20:07;49.87;;;27.27;;
18693;SDS011;9477;51.414;10.362;2023-02-10T09:22:11;51.27;;;28.27;;
18693;SDS011;9477;51.414;10.362;2023-02-10T09:24:14;47.23;;;27.00;;
18693;SDS011;9477;51.414;10.362;2023-02-10T09:26:17;51.37;;;26.87;;
18693;SDS011;9477;51.414;10.362;2023-02-10T09:28:20;45.53;;;24.90;;
18693;SDS011;9477;51.414;10.362;2023-02-10T09:30:23;48.33;;;26.77;;
18693;SDS011;9477;51.414;10.362;2023-02-10T09:32:26;49.77;;;26.20;;
18693;SDS011;9477;51.414;10.362;2023-02-10T09:34:29;72.33;;;36.03;;
18693;SDS011;9477;51.414;10.362;2023-02-10T09:36:34;45.27;;;24.30;;
18693;SDS011;9477;51.414;10.362;2023-02-10T09:38:37;43.00;;;23.77;;
18693;SDS011;9477;51.414;10.362;2023-02-10T09:40:44;41.10;;;23.63;;
18693;SDS011;9477;51.414;10.362;2023-02-10T09:42:55;38.27;;;21.23;;
18693;SDS011;9477;51.414;10.362;2023-02-10T09:45:09;38.43;;;21.07;;
18693;SDS011;9477;51.414;10.362;2023-02-10T09:47:19;39.07;;;21.27;;
18693;SDS011;9477;51.414;10.362;2023-02-10T09:50:11;35.77;;;20.03;;
18693;SDS011;9477;51.414;10.362;2023-02-10T09:52:35;36.23;;;20.50;;
18693;SDS011;9477;51.414;10.362;2023-02-10T09:54:45;37.40;;;20.10;;
18693;SDS011;9477;51.414;10.362;2023-02-10T09:56:48;37.53;;;20.33;;
18693;SDS011;9477;51.414;10.362;2023-02-10T09:58:52;34.23;;;20.33;;
18693;SDS011;9477;51.414;10.362;2023-02-10T10:00:58;36.10;;;20.87;;
18693;SDS011;9477;51.414;10.362;2023-02-10T10:03:05;38.83;;;20.67;;
18693;SDS011;9477;51.414;10.362;2023-02-10T10:05:14;42.03;;;21.57;;
18693;SDS011;9477;51.414;10.362;2023-02-10T10:07:25;38.63;;;21.60;;
18693;SDS011;9477;51.414;10.362;2023-02-10T10:09:35;44.60;;;22.73;;
18693;SDS011;9477;51.414;10.362;2023-02-10T10:11:43;43.73;;;22.83;;
18693;SDS011;9477;51.414;10.362;2023-02-10T10:13:48;35.60;;;20.40;;
18693;SDS011;9477;51.414;10.362;2023-02-10T10:15:58;39.93;;;21.57;;
18693;SDS011;9477;51.414;10.362;2023-02-10T10:18:20;36.73;;;20.33;;
18693;SDS011;9477;51.414;10.362;2023-02-10T10:20:34;35.17;;;19.47;;
18693;SDS011;9477;51.414;10.362;2023-02-10T10:22:48;36.10;;;18.97;;
18693;SDS011;9477;51.414;10.362;2023-02-10T10:25:07;35.70;;;18.43;;
18693;SDS011;9477;51.414;10.362;2023-02-10T10:27:24;38.33;;;18.73;;
18693;SDS011;9477;51.414;10.362;2023-02-10T10:29:36;33.57;;;18.93;;
18693;SDS011;9477;51.414;10.362;2023-02-10T10:31:46;35.93;;;19.00;;
18693;SDS011;9477;51.414;10.362;2023-02-10T10:33:53;31.17;;;18.70;;
18693;SDS011;9477;51.414;10.362;2023-02-10T10:36:00;38.03;;;21.83;;
18693;SDS011;9477;51.414;10.362;2023-02-10T10:38:07;41.83;;;24.33;;
18693;SDS011;9477;51.414;10.362;2023-02-10T10:40:16;41.53;;;23.57;;
18693;SDS011;9477;51.414;10.362;2023-02-10T10:42:23;42.33;;;26.20;;
18693;SDS011;9477;51.414;10.362;2023-02-10T10:44:30;45.07;;;24.30;;
18693;SDS011;9477;51.414;10.362;2023-02-10T10:46:38;42.77;;;24.53;;
18693;SDS011;9477;51.414;10.362;2023-02-10T10:48:44;46.87;;;26.23;;
18693;SDS011;9477;51.414;10.362;2023-02-10T10:50:47;43.73;;;25.40;;
18693;SDS011;9477;51.414;10.362;2023-02-10T10:52:51;41.37;;;25.00;;
18693;SDS011;9477;51.414;10.362;2023-02-10T10:54:56;49.40;;;28.43;;
18693;SDS011;9477;51.414;10.362;2023-02-10T10:57:01;42.43;;;24.60;;
18693;SDS011;9477;51.414;10.362;2023-02-10T10:59:10;45.53;;;27.57;;
18693;SDS011;9477;51.414;10.362;2023-02-10T11:01:16;42.87;;;25.43;;
18693;SDS011;9477;51.414;10.362;2023-02-10T11:03:20;45.40;;;27.07;;
18693;SDS011;9477;51.414;10.362;2023-02-10T11:05:25;42.53;;;26.33;;
18693;SDS011;9477;51.414;10.362;2023-02-10T11:07:30;43.40;;;26.17;;
18693;SDS011;9477;51.414;10.362;2023-02-10T11:09:35;42.10;;;24.73;;
18693;SDS011;9477;51.414;10.362;2023-02-10T11:11:42;44.93;;;25.30;;
18693;SDS011;9477;51.414;10.362;2023-02-10T11:13:50;46.30;;;25.00;;
18693;SDS011;9477;51.414;10.362;2023-02-10T11:15:59;40.93;;;24.07;;
18693;SDS011;9477;51.414;10.362;2023-02-10T11:18:05;37.77;;;24.63;;
18693;SDS011;9477;51.414;10.362;2023-02-10T11:20:21;43.67;;;25.90;;
18693;SDS011;9477;51.414;10.362;2023-02-10T11:22:30;41.30;;;25.00;;
18693;SDS011;9477;51.414;10.362;2023-02-10T11:24:48;40.57;;;24.97;;
18693;SDS011;9477;51.414;10.362;2023-02-10T11:26:53;42.27;;;24.77;;
18693;SDS011;9477;51.414;10.362;2023-02-10T11:29:07;41.53;;;24.23;;
18693;SDS011;9477;51.414;10.362;2023-02-10T11:31:18;44.47;;;25.63;;
18693;SDS011;9477;51.414;10.362;2023-02-10T11:33:33;47.03;;;26.03;;
18693;SDS011;9477;51.414;10.362;2023-02-10T11:35:37;43.77;;;25.43;;
18693;SDS011;9477;51.414;10.362;2023-02-10T11:37:40;37.40;;;23.07;;
18693;SDS011;9477;51.414;10.362;2023-02-10T11:39:44;40.83;;;23.77;;
18693;SDS011;9477;51.414;10.362;2023-02-10T11:41:49;43.00;;;25.30;;
18693;SDS011;9477;51.414;10.362;2023-02-10T11:43:52;44.43;;;24.90;;
18693;SDS011;9477;51.414;10.362;2023-02-10T11:45:58;45.10;;;26.17;;
18693;SDS011;9477;51.414;10.362;2023-02-10T11:48:03;55.33;;;34.03;;
18693;SDS011;9477;51.414;10.362;2023-02-10T11:50:18;44.50;;;27.70;;
18693;SDS011;9477;51.414;10.362;2023-02-10T11:52:22;42.77;;;25.87;;
18693;SDS011;9477;51.414;10.362;2023-02-10T11:54:29;40.00;;;24.63;;
18693;SDS011;9477;51.414;10.362;2023-02-10T11:56:33;40.73;;;24.50;;
18693;SDS011;9477;51.414;10.362;2023-02-10T11:59:06;41.23;;;23.97;;
18693;SDS011;9477;51.414;10.362;2023-02-10T12:01:15;40.57;;;24.63;;
18693;SDS011;9477;51.414;10.362;2023-02-10T12:03:28;48.03;;;25.73;;
18693;SDS011;9477;51.414;10.362;2023-02-10T12:05:38;45.37;;;26.27;;
18693;SDS011;9477;51.414;10.362;2023-02-10T12:07:51;41.80;;;25.10;;
18693;SDS011;9477;51.414;10.362;2023-02-10T12:10:08;41.50;;;25.17;;
18693;SDS011;9477;51.414;10.362;2023-02-10T12:12:18;44.83;;;26.60;;
18693;SDS011;9477;51.414;10.362;2023-02-10T12:14:32;46.07;;;25.13;;
18693;SDS011;9477;51.414;10.362;2023-02-10T12:16:48;48.37;;;26.10;;
18693;SDS011;9477;51.414;10.362;2023-02-10T12:18:58;42.97;;;26.03;;
18693;SDS011;9477;51.414;10.362;2023-02-10T12:21:09;45.63;;;27.33;;
18693;SDS011;9477;51.414;10.362;2023-02-10T12:23:30;42.97;;;25.37;;
18693;SDS011;9477;51.414;10.362;2023-02-10T12:25:55;44.33;;;25.50;;
18693;SDS011;9477;51.414;10.362;2023-02-10T12:28:06;45.87;;;25.63;;
18693;SDS011;9477;51.414;10.362;2023-02-10T12:30:19;47.90;;;26.30;;
18693;SDS011;9477;51.414;10.362;2023-02-10T12:32:33;48.43;;;25.30;;
18693;SDS011;9477;51.414;10.362;2023-02-10T12:34:50;49.43;;;26.50;;